Time;durP1;ratioP1;P1;durP2;ratioP2;P2;SDS_P1;SDS_P2;PMS_P1;PMS_P2;Temp;Humidity;BMP_temperature;BMP_pressure;BME280_temperature;BME280_humidity;BME280_pressure;Samples;Min_cycle;Max_cycle;Signal;HPM_P1;HPM_P2
2022/12/16 00:00:46;;;;;;;;;;;-2.20;99.90;;;-3.52;100.00;95970.16;5024472;28;19960;-39
2022/12/16 00:03:11;;;;;;;;;;;-2.30;99.90;;;-3.54;100.00;95983.94;5026149;28;19924;-39
2022/12/16 00:05:37;;;;;;;;;;;-2.20;99.90;;;-3.61;100.00;95979.66;5025618;28;20616;-39
2022/12/16 00:08:03;;;;;;;;;;;-2.30;99.90;;;-3.61;100.00;95980.50;5030772;28;19952;-39
2022/12/16 00:10:51;;;;;;;;;;;-2.30;99.90;;;-3.67;100.00;95978.81;5031101;28;20015;-40
2022/12/16 00:13:14;;;;;;;;;;;-2.40;99.90;;;-3.70;100.00;95983.97;5033551;28;19913;-39
2022/12/16 00:15:40;;;;;;;;;;;-2.40;99.90;;;-3.67;100.00;95980.56;5026590;28;19913;-39
2022/12/16 00:18:05;;;;;;;;;;;-2.40;99.90;;;-3.68;100.00;95984.84;5032589;28;20637;-39
2022/12/16 00:20:31;;;;;;;;;;;-2.40;99.90;;;-3.63;100.00;95983.97;5024171;28;19928;-39
2022/12/16 00:22:57;;;;;;;;;;;-2.40;99.90;;;-3.81;100.00;95952.25;5021274;28;19925;-39
2022/12/16 00:25:22;;;;;;;;;;;-2.40;99.90;;;-3.61;100.00;95982.25;5024937;28;20015;-39
2022/12/16 00:27:48;;;;;;;;;;;-2.40;99.90;;;-3.62;100.00;95980.50;5030700;28;19912;-39
2022/12/16 00:30:13;;;;;;;;;;;-2.30;99.90;;;-3.67;100.00;95978.81;5027817;28;21226;-39
2022/12/16 00:32:39;;;;;;;;;;;-2.40;99.90;;;-3.70;100.00;95981.41;5031492;28;19912;-39
2022/12/16 00:35:05;;;;;;;;;;;-2.40;99.90;;;-3.74;100.00;95981.44;5031608;28;20995;-39
2022/12/16 00:37:31;;;;;;;;;;;-2.40;99.90;;;-4.04;100.00;95937.75;5032451;28;19921;-39
2022/12/16 00:39:57;;;;;;;;;;;-2.40;99.90;;;-3.78;100.00;95987.47;5030812;28;20051;-39
2022/12/16 00:42:22;;;;;;;;;;;-2.40;99.90;;;-3.76;100.00;95984.00;5026436;28;19920;-39
2022/12/16 00:44:48;;;;;;;;;;;-2.50;99.90;;;-3.80;100.00;95987.47;5027646;28;19920;-39
2022/12/16 00:47:14;;;;;;;;;;;-2.50;99.90;;;-3.86;100.00;95984.91;5030034;28;19916;-39
2022/12/16 00:49:39;;;;;;;;;;;-2.50;99.90;;;-3.81;100.00;95985.75;5027762;28;19938;-39
2022/12/16 00:52:05;;;;;;;;;;;-2.50;99.90;;;-3.83;100.00;95990.06;5036792;28;20065;-39
2022/12/16 00:54:30;;;;;;;;;;;-2.50;99.90;;;-3.85;100.00;95995.19;5032268;28;19924;-39
2022/12/16 00:56:56;;;;;;;;;;;-2.50;99.90;;;-3.90;100.00;95985.78;5032007;28;19920;-39
2022/12/16 00:59:22;;;;;;;;;;;-2.50;99.90;;;-3.87;100.00;95999.50;5032494;28;19955;-39
2022/12/16 01:01:47;;;;;;;;;;;-2.60;99.90;;;-3.94;100.00;95997.81;5029812;28;19920;-39
2022/12/16 01:04:13;;;;;;;;;;;-2.60;99.90;;;-3.88;100.00;96010.66;5029894;28;19931;-39
2022/12/16 01:06:39;;;;;;;;;;;-2.60;99.90;;;-3.90;100.00;96014.13;5023880;28;20007;-39
2022/12/16 01:09:05;;;;;;;;;;;-2.60;99.90;;;-3.86;100.00;96002.94;5024903;28;19925;-39
2022/12/16 01:11:30;;;;;;;;;;;-2.60;99.90;;;-3.83;100.00;96023.53;5032777;28;19971;-39
2022/12/16 01:13:56;;;;;;;;;;;-2.60;99.90;;;-3.84;100.00;96014.06;5026027;28;19962;-39
2022/12/16 01:16:22;;;;;;;;;;;-2.60;99.90;;;-3.85;100.00;96022.69;5022566;28;20291;-39
2022/12/16 01:18:47;;;;;;;;;;;-2.60;99.90;;;-3.83;100.00;96026.13;5024242;28;19920;-39
2022/12/16 01:21:13;;;;;;;;;;;-2.50;99.90;;;-3.85;100.00;96023.53;5025754;28;19947;-39
2022/12/16 01:23:39;;;;;;;;;;;-2.50;99.90;;;-3.88;100.00;96012.38;5027611;28;20232;-39
2022/12/16 01:26:05;;;;;;;;;;;-2.60;99.90;;;-3.78;100.00;96032.13;5023769;28;20012;-39
2022/12/16 01:28:31;;;;;;;;;;;-2.50;99.90;;;-3.75;100.00;96026.97;5028397;28;20372;-39
2022/12/16 01:31:00;;;;;;;;;;;-2.50;99.90;;;-3.83;100.00;96031.25;5028614;28;20051;-39
2022/12/16 01:33:31;;;;;;;;;;;-2.50;99.90;;;-3.87;100.00;96033.00;5028818;28;20138;-39
2022/12/16 01:36:07;;;;;;;;;;;-2.60;99.90;;;-3.95;100.00;96021.84;5026213;28;20277;-39
2022/12/16 01:38:33;;;;;;;;;;;-2.60;99.90;;;-3.96;100.00;96027.00;5027309;28;19920;-39
2022/12/16 01:40:59;;;;;;;;;;;-2.60;99.90;;;-3.96;100.00;96027.88;5025055;28;20407;-39
2022/12/16 01:43:31;;;;;;;;;;;-2.60;99.90;;;-3.98;100.00;96028.72;5043508;23;20182;-42
2022/12/16 01:46:04;;;;;;;;;;;-2.70;99.90;;;-4.00;100.00;96033.91;5040136;28;19928;-43
2022/12/16 01:48:52;;;;;;;;;;;-2.70;99.90;;;-3.98;100.00;96041.59;5050017;28;19923;-42
2022/12/16 01:51:24;;;;;;;;;;;-2.70;99.90;;;-3.97;100.00;96045.91;5047290;28;20386;-43
2022/12/16 01:53:53;;;;;;;;;;;-2.70;99.90;;;-3.99;100.00;96052.75;5044700;28;19920;-44
2022/12/16 01:56:19;;;;;;;;;;;-2.70;99.90;;;-3.96;100.00;96045.03;5007805;28;19916;-44
2022/12/16 01:58:45;;;;;;;;;;;-2.70;99.90;;;-3.93;100.00;96060.47;5026931;28;19952;-43
2022/12/16 02:01:12;;;;;;;;;;;-2.70;99.90;;;-3.96;100.00;96061.34;5029644;28;19921;-44
2022/12/16 02:03:38;;;;;;;;;;;-2.70;99.90;;;-3.95;100.00;96062.19;5015780;28;19921;-43
2022/12/16 02:06:05;;;;;;;;;;;-2.60;99.90;;;-3.98;100.00;96047.63;5032851;28;20347;-43
2022/12/16 02:08:31;;;;;;;;;;;-2.60;99.90;;;-3.87;100.00;96056.19;5028720;28;19917;-43
2022/12/16 02:11:27;;;;;;;;;;;-2.60;99.90;;;-3.86;100.00;96057.03;5029719;28;19926;-43
2022/12/16 02:14:25;;;;;;;;;;;-2.60;99.90;;;-3.83;100.00;96063.03;5008273;28;19963;-43
2022/12/16 02:17:12;;;;;;;;;;;-2.60;99.90;;;-3.87;100.00;96063.06;5027407;28;19959;-43
2022/12/16 02:20:05;;;;;;;;;;;-2.60;99.90;;;-3.89;100.00;96070.78;4997913;28;20051;-42
2022/12/16 02:23:09;;;;;;;;;;;-2.60;99.90;;;-3.91;100.00;96069.03;5000399;28;21156;-43
2022/12/16 02:25:35;;;;;;;;;;;-2.60;99.90;;;-3.93;100.00;96070.78;5010878;28;19940;-44
2022/12/16 02:28:25;;;;;;;;;;;-2.60;99.90;;;-3.92;100.00;96070.78;5023714;28;20276;-43
2022/12/16 02:31:12;;;;;;;;;;;-2.70;99.90;;;-3.95;100.00;96067.34;5006011;28;19913;-43
2022/12/16 02:33:50;;;;;;;;;;;-2.60;99.90;;;-3.97;100.00;96069.91;5028993;28;19920;-44
2022/12/16 02:36:23;;;;;;;;;;;-2.70;99.90;;;-3.99;100.00;96061.34;5018259;28;19966;-42
2022/12/16 02:38:57;;;;;;;;;;;-2.70;99.90;;;-3.99;100.00;96065.66;5010070;28;19951;-42
2022/12/16 02:41:48;;;;;;;;;;;-2.70;99.90;;;-3.98;100.00;96064.75;5010647;28;19916;-42
2022/12/16 02:44:15;;;;;;;;;;;-2.70;99.90;;;-3.97;100.00;96058.78;5009119;28;19951;-42
2022/12/16 02:46:43;;;;;;;;;;;-2.70;99.90;;;-4.00;100.00;96066.50;5017554;28;20042;-42
2022/12/16 02:49:29;;;;;;;;;;;-2.70;99.90;;;-4.03;100.00;96065.63;5011926;28;20013;-43
2022/12/16 02:51:57;;;;;;;;;;;-2.70;99.90;;;-4.04;100.00;96076.81;5020353;28;20357;-43
2022/12/16 02:54:23;;;;;;;;;;;-2.70;99.90;;;-4.04;100.00;96078.50;5028234;28;19917;-51
2022/12/16 02:57:13;;;;;;;;;;;-2.70;99.90;;;-4.04;100.00;96074.25;5024575;28;19963;-44
2022/12/16 02:59:50;;;;;;;;;;;-2.70;99.90;;;-4.03;100.00;96078.50;5024837;28;19920;-44
2022/12/16 03:02:21;;;;;;;;;;;-2.70;99.90;;;-4.04;100.00;96078.50;5005993;28;20049;-43
2022/12/16 03:04:57;;;;;;;;;;;-2.70;99.90;;;-4.01;100.00;96087.97;5025885;28;21437;-43
2022/12/16 03:07:25;;;;;;;;;;;-2.70;99.90;;;-4.03;100.00;96090.53;5008146;28;19924;-44
2022/12/16 03:09:52;;;;;;;;;;;-2.70;99.90;;;-4.01;100.00;96093.97;4994325;28;19956;-43
2022/12/16 03:12:19;;;;;;;;;;;-2.70;99.90;;;-4.04;100.00;96089.69;5009821;28;20451;-44
2022/12/16 03:14:48;;;;;;;;;;;-2.70;99.90;;;-4.03;100.00;96088.81;5016509;28;19921;-43
2022/12/16 03:17:14;;;;;;;;;;;-2.70;99.90;;;-3.99;100.00;96086.25;5006581;28;20003;-43
2022/12/16 03:19:44;;;;;;;;;;;-2.70;99.90;;;-4.00;100.00;96085.41;5004412;28;20506;-43
2022/12/16 03:22:17;;;;;;;;;;;-2.70;99.90;;;-3.98;100.00;96090.53;5024078;28;19916;-43
2022/12/16 03:24:43;;;;;;;;;;;-2.70;99.90;;;-3.98;100.00;96096.56;5010458;28;19974;-43
2022/12/16 03:27:19;;;;;;;;;;;-2.70;99.90;;;-3.96;100.00;96091.41;5006357;28;19924;-49
2022/12/16 03:30:08;;;;;;;;;;;-2.70;99.90;;;-3.96;100.00;96097.41;5007160;28;19939;-42
2022/12/16 03:32:38;;;;;;;;;;;-2.70;99.90;;;-3.98;100.00;96101.69;5010779;28;19928;-42
2022/12/16 03:35:18;;;;;;;;;;;-2.70;99.90;;;-4.06;100.00;96096.53;5002725;28;20341;-43
2022/12/16 03:37:45;;;;;;;;;;;-2.70;99.90;;;-3.98;100.00;96108.53;5023527;28;19917;-42
2022/12/16 03:40:11;;;;;;;;;;;-2.70;99.90;;;-3.99;100.00;96106.84;5020038;28;19927;-43
2022/12/16 03:42:38;;;;;;;;;;;-2.70;99.90;;;-4.01;100.00;96114.56;5032061;28;19929;-43
2022/12/16 03:45:07;;;;;;;;;;;-2.70;99.90;;;-3.97;100.00;96112.84;5006396;28;19921;-43
2022/12/16 03:47:32;;;;;;;;;;;-2.70;99.90;;;-3.96;100.00;96119.72;5010446;28;19920;-45
2022/12/16 03:49:58;;;;;;;;;;;-2.70;99.90;;;-4.00;100.00;96118.88;5026844;28;20777;-43
2022/12/16 03:52:24;;;;;;;;;;;-2.70;99.90;;;-3.96;100.00;96125.72;5008944;28;19917;-43
2022/12/16 03:54:49;;;;;;;;;;;-2.70;99.90;;;-3.96;100.00;96122.31;5023538;28;19986;-44
2022/12/16 03:57:15;;;;;;;;;;;-2.70;99.90;;;-3.97;100.00;96124.00;5026901;28;20424;-45
2022/12/16 03:59:40;;;;;;;;;;;-2.70;99.90;;;-3.96;100.00;96123.16;5024958;28;20388;-44
2022/12/16 04:02:06;;;;;;;;;;;-2.70;99.90;;;-3.95;100.00;96124.84;5032685;28;19916;-46
2022/12/16 04:04:32;;;;;;;;;;;-2.60;99.90;;;-3.95;100.00;96132.59;5028386;28;19921;-44
2022/12/16 04:09:41;;;;;;;;;;;-2.70;99.90;;;-3.93;100.00;96140.31;5019959;28;19923;-44
2022/12/16 04:25:54;;;;;;;;;;;-2.70;99.90;;;-4.00;100.00;96144.63;5026426;28;20006;-43
2022/12/16 04:28:20;;;;;;;;;;;-2.70;99.90;;;-4.00;100.00;96148.91;5026580;28;20033;-43
2022/12/16 04:30:45;;;;;;;;;;;-2.70;99.90;;;-3.99;100.00;96154.06;5024898;28;20168;-45
